sensor_id;sensor_type;location;lat;lon;timestamp;pressure;altitude;pressure_sealevel;temperature;humidity
34921;BME280;21128;50.016;20.002;2022-08-04T00:01:11;99104.31;;;19.57;88.38
34921;BME280;21128;50.016;20.002;2022-08-04T00:03:51;99100.83;;;19.57;88.73
34921;BME280;21128;50.016;20.002;2022-08-04T00:09:29;99094.41;;;19.51;89.15
34921;BME280;21128;50.016;20.002;2022-08-04T00:12:05;99095.41;;;19.50;89.53
34921;BME280;21128;50.016;20.002;2022-08-04T00:14:34;99098.66;;;19.46;89.38
34921;BME280;21128;50.016;20.002;2022-08-04T00:17:05;99098.04;;;19.44;89.87
34921;BME280;21128;50.016;20.002;2022-08-04T00:19:43;99101.27;;;19.39;90.21
34921;BME280;21128;50.016;20.002;2022-08-04T00:22:12;99097.16;;;19.36;90.14
34921;BME280;21128;50.016;20.002;2022-08-04T00:24:40;99100.97;;;19.27;90.35
34921;BME280;21128;50.016;20.002;2022-08-04T00:27:07;99106.04;;;19.22;90.91
34921;BME280;21128;50.016;20.002;2022-08-04T00:29:37;99105.41;;;19.20;91.24
34921;BME280;21128;50.016;20.002;2022-08-04T00:32:06;99104.78;;;19.18;91.58
34921;BME280;21128;50.016;20.002;2022-08-04T00:34:41;99101.47;;;19.16;91.63
34921;BME280;21128;50.016;20.002;2022-08-04T00:37:15;99105.15;;;19.15;91.64
34921;BME280;21128;50.016;20.002;2022-08-04T00:39:43;99104.72;;;19.11;92.01
34921;BME280;21128;50.016;20.002;2022-08-04T00:42:17;99100.77;;;19.07;92.52
34921;BME280;21128;50.016;20.002;2022-08-04T00:45:06;99102.80;;;19.05;92.34
34921;BME280;21128;50.016;20.002;2022-08-04T00:50:26;99106.05;;;19.01;93.02
34921;BME280;21128;50.016;20.002;2022-08-04T00:53:33;99110.72;;;18.99;93.62
34921;BME280;21128;50.016;20.002;2022-08-04T01:08:09;99113.38;;;18.77;94.67
34921;BME280;21128;50.016;20.002;2022-08-04T01:15:52;99115.69;;;18.66;95.72
34921;BME280;21128;50.016;20.002;2022-08-04T01:24:27;99109.80;;;18.55;95.98
34921;BME280;21128;50.016;20.002;2022-08-04T01:27:05;99108.35;;;18.53;96.75
34921;BME280;21128;50.016;20.002;2022-08-04T01:29:54;99104.05;;;18.52;97.15
34921;BME280;21128;50.016;20.002;2022-08-04T01:32:35;99102.40;;;18.51;96.90
34921;BME280;21128;50.016;20.002;2022-08-04T01:35:23;99106.90;;;18.50;97.15
34921;BME280;21128;50.016;20.002;2022-08-04T01:40:26;99110.73;;;18.48;97.46
34921;BME280;21128;50.016;20.002;2022-08-04T01:42:53;99104.78;;;18.46;97.52
34921;BME280;21128;50.016;20.002;2022-08-04T01:45:29;99096.98;;;18.44;97.77
34921;BME280;21128;50.016;20.002;2022-08-04T01:47:56;99111.31;;;18.43;97.74
34921;BME280;21128;50.016;20.002;2022-08-04T01:50:23;99100.20;;;18.40;98.15
34921;BME280;21128;50.016;20.002;2022-08-04T01:52:54;99107.55;;;18.38;97.99
34921;BME280;21128;50.016;20.002;2022-08-04T01:55:40;99102.61;;;18.35;98.29
34921;BME280;21128;50.016;20.002;2022-08-04T01:58:10;99108.47;;;18.30;98.49
34921;BME280;21128;50.016;20.002;2022-08-04T02:00:44;99102.70;;;18.26;98.89
34921;BME280;21128;50.016;20.002;2022-08-04T02:03:22;99097.10;;;18.21;99.33
34921;BME280;21128;50.016;20.002;2022-08-04T02:05:54;99106.48;;;18.17;99.09
34921;BME280;21128;50.016;20.002;2022-08-04T02:08:45;99101.50;;;18.14;99.40
34921;BME280;21128;50.016;20.002;2022-08-04T02:11:21;99108.21;;;18.10;100.00
34921;BME280;21128;50.016;20.002;2022-08-04T02:17:11;99102.61;;;18.05;100.00
34921;BME280;21128;50.016;20.002;2022-08-04T02:20:08;99104.63;;;18.03;100.00
34921;BME280;21128;50.016;20.002;2022-08-04T02:22:54;99096.84;;;18.02;100.00
34921;BME280;21128;50.016;20.002;2022-08-04T02:25:25;99101.69;;;17.98;100.00
34921;BME280;21128;50.016;20.002;2022-08-04T02:33:39;99090.60;;;17.94;100.00
34921;BME280;21128;50.016;20.002;2022-08-04T02:36:13;99097.76;;;17.94;100.00
34921;BME280;21128;50.016;20.002;2022-08-04T02:38:53;99089.30;;;17.90;100.00
34921;BME280;21128;50.016;20.002;2022-08-04T02:41:23;99093.16;;;17.88;100.00
34921;BME280;21128;50.016;20.002;2022-08-04T02:43:55;99077.78;;;17.83;100.00
34921;BME280;21128;50.016;20.002;2022-08-04T02:46:30;99093.25;;;17.80;100.00
34921;BME280;21128;50.016;20.002;2022-08-04T02:49:09;99093.63;;;17.77;100.00
34921;BME280;21128;50.016;20.002;2022-08-04T02:51:41;99091.02;;;17.68;100.00
34921;BME280;21128;50.016;20.002;2022-08-04T02:54:09;99089.70;;;17.64;100.00
34921;BME280;21128;50.016;20.002;2022-08-04T02:56:44;99093.56;;;17.62;100.00
34921;BME280;21128;50.016;20.002;2022-08-04T02:59:14;99089.27;;;17.61;100.00
34921;BME280;21128;50.016;20.002;2022-08-04T03:01:41;99090.27;;;17.60;100.00
34921;BME280;21128;50.016;20.002;2022-08-04T03:04:42;99086.79;;;17.59;100.00
34921;BME280;21128;50.016;20.002;2022-08-04T03:13:31;99089.63;;;17.58;100.00
34921;BME280;21128;50.016;20.002;2022-08-04T03:22:54;99092.70;;;17.47;100.00
34921;BME280;21128;50.016;20.002;2022-08-04T03:50:41;99095.92;;;17.42;100.00
34921;BME280;21128;50.016;20.002;2022-08-04T03:56:29;99097.20;;;17.46;100.00
34921;BME280;21128;50.016;20.002;2022-08-04T03:59:14;99103.70;;;17.43;100.00
34921;BME280;21128;50.016;20.002;2022-08-04T04:07:24;99103.81;;;17.50;100.00
34921;BME280;21128;50.016;20.002;2022-08-04T04:15:39;99101.11;;;17.73;100.00
34921;BME280;21128;50.016;20.002;2022-08-04T04:27:39;99111.22;;;18.07;100.00
34921;BME280;21128;50.016;20.002;2022-08-04T04:30:17;99112.14;;;18.14;100.00
34921;BME280;21128;50.016;20.002;2022-08-04T04:33:05;99109.13;;;18.17;100.00
34921;BME280;21128;50.016;20.002;2022-08-04T04:41:46;99110.02;;;18.39;100.00
34921;BME280;21128;50.016;20.002;2022-08-04T04:44:40;99125.24;;;18.45;100.00
34921;BME280;21128;50.016;20.002;2022-08-04T04:47:32;99121.47;;;18.54;100.00
34921;BME280;21128;50.016;20.002;2022-08-04T04:50:20;99118.89;;;18.61;100.00
34921;BME280;21128;50.016;20.002;2022-08-04T04:58:30;99136.64;;;18.90;100.00
34921;BME280;21128;50.016;20.002;2022-08-04T05:01:21;99132.84;;;18.99;100.00
34921;BME280;21128;50.016;20.002;2022-08-04T05:04:15;99130.95;;;19.15;100.00
34921;BME280;21128;50.016;20.002;2022-08-04T05:15:38;99128.22;;;19.72;100.00
34921;BME280;21128;50.016;20.002;2022-08-04T05:18:06;99125.41;;;19.80;100.00
34921;BME280;21128;50.016;20.002;2022-08-04T05:20:41;99138.19;;;19.91;100.00
34921;BME280;21128;50.016;20.002;2022-08-04T05:23:28;99127.38;;;20.00;100.00
34921;BME280;21128;50.016;20.002;2022-08-04T05:25:58;99133.01;;;20.11;100.00
34921;BME280;21128;50.016;20.002;2022-08-04T05:28:32;99132.04;;;20.25;99.64
34921;BME280;21128;50.016;20.002;2022-08-04T05:31:03;99136.22;;;20.35;98.68
34921;BME280;21128;50.016;20.002;2022-08-04T05:36:06;99138.77;;;20.49;96.89
34921;BME280;21128;50.016;20.002;2022-08-04T05:38:40;99141.88;;;20.53;95.90
34921;BME280;21128;50.016;20.002;2022-08-04T05:41:09;99147.05;;;20.61;96.11
34921;BME280;21128;50.016;20.002;2022-08-04T05:43:38;99142.36;;;20.70;95.23
34921;BME280;21128;50.016;20.002;2022-08-04T05:46:08;99140.36;;;20.85;95.08
34921;BME280;21128;50.016;20.002;2022-08-04T05:48:37;99142.84;;;21.00;94.56
34921;BME280;21128;50.016;20.002;2022-08-04T05:51:12;99142.05;;;21.06;94.21
34921;BME280;21128;50.016;20.002;2022-08-04T05:53:41;99150.70;;;21.15;92.55
34921;BME280;21128;50.016;20.002;2022-08-04T05:56:12;99146.58;;;21.19;91.80
34921;BME280;21128;50.016;20.002;2022-08-04T05:58:45;99143.10;;;21.25;91.00
34921;BME280;21128;50.016;20.002;2022-08-04T06:01:13;99148.70;;;21.30;90.50
34921;BME280;21128;50.016;20.002;2022-08-04T06:03:43;99139.69;;;21.44;90.37
34921;BME280;21128;50.016;20.002;2022-08-04T06:06:12;99147.91;;;21.56;89.55
34921;BME280;21128;50.016;20.002;2022-08-04T06:08:40;99150.16;;;21.66;89.84
34921;BME280;21128;50.016;20.002;2022-08-04T06:11:08;99148.92;;;21.75;88.67
34921;BME280;21128;50.016;20.002;2022-08-04T06:13:42;99154.70;;;21.78;88.49
34921;BME280;21128;50.016;20.002;2022-08-04T06:16:12;99152.63;;;21.80;88.01
34921;BME280;21128;50.016;20.002;2022-08-04T06:18:42;99156.73;;;21.83;88.47
34921;BME280;21128;50.016;20.002;2022-08-04T06:21:12;99152.21;;;21.90;88.24
34921;BME280;21128;50.016;20.002;2022-08-04T06:23:47;99161.05;;;21.97;87.29
34921;BME280;21128;50.016;20.002;2022-08-04T06:26:15;99151.17;;;22.04;86.99
34921;BME280;21128;50.016;20.002;2022-08-04T06:28:49;99158.38;;;22.17;87.48
34921;BME280;21128;50.016;20.002;2022-08-04T06:31:18;99160.83;;;22.25;86.66
34921;BME280;21128;50.016;20.002;2022-08-04T06:34:10;99157.49;;;22.36;86.26
34921;BME280;21128;50.016;20.002;2022-08-04T06:36:38;99159.55;;;22.41;85.59
34921;BME280;21128;50.016;20.002;2022-08-04T06:39:07;99157.48;;;22.43;85.17
34921;BME280;21128;50.016;20.002;2022-08-04T06:41:35;99157.68;;;22.48;85.23
34921;BME280;21128;50.016;20.002;2022-08-04T06:44:06;99154.77;;;22.56;84.69
34921;BME280;21128;50.016;20.002;2022-08-04T06:46:36;99155.97;;;22.60;84.53
34921;BME280;21128;50.016;20.002;2022-08-04T06:49:10;99148.73;;;22.67;84.00
34921;BME280;21128;50.016;20.002;2022-08-04T06:51:37;99152.44;;;22.73;84.09
34921;BME280;21128;50.016;20.002;2022-08-04T06:54:05;99149.30;;;22.83;84.25
34921;BME280;21128;50.016;20.002;2022-08-04T06:56:37;99147.82;;;22.93;84.01
34921;BME280;21128;50.016;20.002;2022-08-04T06:59:13;99150.44;;;23.07;83.58
34921;BME280;21128;50.016;20.002;2022-08-04T07:01:42;99151.45;;;23.12;82.91
34921;BME280;21128;50.016;20.002;2022-08-04T07:04:11;99154.70;;;23.21;82.80
34921;BME280;21128;50.016;20.002;2022-08-04T07:06:38;99158.12;;;23.28;81.89
34921;BME280;21128;50.016;20.002;2022-08-04T07:09:06;99149.00;;;23.36;81.98
34921;BME280;21128;50.016;20.002;2022-08-04T07:11:33;99144.64;;;23.41;81.35
34921;BME280;21128;50.016;20.002;2022-08-04T07:14:01;99150.19;;;23.46;81.04
34921;BME280;21128;50.016;20.002;2022-08-04T07:16:29;99151.75;;;23.54;80.11
34921;BME280;21128;50.016;20.002;2022-08-04T07:19:04;99137.92;;;23.57;80.08
34921;BME280;21128;50.016;20.002;2022-08-04T07:21:34;99137.69;;;23.65;79.44
34921;BME280;21128;50.016;20.002;2022-08-04T07:24:08;99145.06;;;23.70;79.53
34921;BME280;21128;50.016;20.002;2022-08-04T07:26:34;99142.92;;;23.78;78.41
34921;BME280;21128;50.016;20.002;2022-08-04T07:29:01;99144.50;;;23.86;78.94
34921;BME280;21128;50.016;20.002;2022-08-04T07:31:29;99144.16;;;24.01;79.28
34921;BME280;21128;50.016;20.002;2022-08-04T07:34:03;99145.45;;;24.17;78.63
34921;BME280;21128;50.016;20.002;2022-08-04T07:36:30;99148.08;;;24.23;78.23
34921;BME280;21128;50.016;20.002;2022-08-04T07:38:57;99149.84;;;24.29;77.69
34921;BME280;21128;50.016;20.002;2022-08-04T07:41:24;99145.72;;;24.33;78.04
34921;BME280;21128;50.016;20.002;2022-08-04T07:43:52;99143.72;;;24.47;77.76
34921;BME280;21128;50.016;20.002;2022-08-04T07:46:20;99145.64;;;24.58;76.68
34921;BME280;21128;50.016;20.002;2022-08-04T07:48:48;99141.01;;;24.65;76.07
34921;BME280;21128;50.016;20.002;2022-08-04T07:51:16;99143.00;;;24.70;76.40
34921;BME280;21128;50.016;20.002;2022-08-04T07:53:49;99144.33;;;24.79;75.33
34921;BME280;21128;50.016;20.002;2022-08-04T07:56:16;99143.34;;;24.92;74.86
34921;BME280;21128;50.016;20.002;2022-08-04T07:58:44;99137.59;;;25.07;73.98
34921;BME280;21128;50.016;20.002;2022-08-04T08:01:21;99133.65;;;25.21;73.90
34921;BME280;21128;50.016;20.002;2022-08-04T08:03:50;99138.98;;;25.39;72.92
34921;BME280;21128;50.016;20.002;2022-08-04T08:06:18;99138.75;;;25.52;70.89
34921;BME280;21128;50.016;20.002;2022-08-04T08:08:45;99140.05;;;25.62;71.57
34921;BME280;21128;50.016;20.002;2022-08-04T08:11:12;99139.16;;;25.79;68.34
34921;BME280;21128;50.016;20.002;2022-08-04T08:13:39;99141.39;;;25.94;65.15
34921;BME280;21128;50.016;20.002;2022-08-04T08:16:06;99143.86;;;26.07;62.62
34921;BME280;21128;50.016;20.002;2022-08-04T08:18:33;99135.27;;;26.22;62.27
34921;BME280;21128;50.016;20.002;2022-08-04T08:21:00;99140.18;;;26.37;61.72
34921;BME280;21128;50.016;20.002;2022-08-04T08:23:47;99133.27;;;26.53;59.47
34921;BME280;21128;50.016;20.002;2022-08-04T08:26:15;99138.16;;;26.68;60.25
34921;BME280;21128;50.016;20.002;2022-08-04T08:28:42;99139.03;;;26.85;59.99
34921;BME280;21128;50.016;20.002;2022-08-04T08:31:09;99132.87;;;27.01;59.77
34921;BME280;21128;50.016;20.002;2022-08-04T08:33:36;99131.52;;;27.15;60.13
34921;BME280;21128;50.016;20.002;2022-08-04T08:36:08;99121.74;;;27.26;57.63
34921;BME280;21128;50.016;20.002;2022-08-04T08:44:24;99120.95;;;27.59;54.12
34921;BME280;21128;50.016;20.002;2022-08-04T08:47:06;99134.63;;;27.69;54.30
34921;BME280;21128;50.016;20.002;2022-08-04T08:55:21;99142.66;;;28.20;51.70
34921;BME280;21128;50.016;20.002;2022-08-04T09:06:16;99128.92;;;28.65;48.26
34921;BME280;21128;50.016;20.002;2022-08-04T09:12:58;99136.59;;;28.73;46.99
34921;BME280;21128;50.016;20.002;2022-08-04T09:15:23;99141.25;;;28.78;46.81
34921;BME280;21128;50.016;20.002;2022-08-04T09:18:03;99135.33;;;28.81;46.47
34921;BME280;21128;50.016;20.002;2022-08-04T09:20:38;99132.77;;;28.91;46.42
34921;BME280;21128;50.016;20.002;2022-08-04T09:24:04;99139.05;;;28.97;46.24
34921;BME280;21128;50.016;20.002;2022-08-04T09:26:51;99136.16;;;29.03;44.65
34921;BME280;21128;50.016;20.002;2022-08-04T09:32:43;99142.77;;;29.18;44.67
34921;BME280;21128;50.016;20.002;2022-08-04T09:35:39;99138.58;;;29.32;44.49
34921;BME280;21128;50.016;20.002;2022-08-04T09:38:28;99137.56;;;29.38;43.26
34921;BME280;21128;50.016;20.002;2022-08-04T09:44:20;99140.45;;;29.58;43.41
34921;BME280;21128;50.016;20.002;2022-08-04T09:49:40;99129.91;;;29.94;43.52
34921;BME280;21128;50.016;20.002;2022-08-04T10:00:51;99129.19;;;30.09;40.87
34921;BME280;21128;50.016;20.002;2022-08-04T10:03:22;99128.61;;;30.07;39.85
34921;BME280;21128;50.016;20.002;2022-08-04T10:06:54;99131.89;;;30.09;40.61
34921;BME280;21128;50.016;20.002;2022-08-04T10:19:35;99120.27;;;30.66;40.29
34921;BME280;21128;50.016;20.002;2022-08-04T10:25:14;99114.05;;;30.75;39.90
34921;BME280;21128;50.016;20.002;2022-08-04T10:27:49;99103.99;;;30.66;38.99
34921;BME280;21128;50.016;20.002;2022-08-04T10:30:19;99105.11;;;30.70;40.02
34921;BME280;21128;50.016;20.002;2022-08-04T10:33:10;99104.89;;;30.97;40.00
34921;BME280;21128;50.016;20.002;2022-08-04T10:35:45;99101.91;;;31.08;39.43
34921;BME280;21128;50.016;20.002;2022-08-04T10:44:13;99098.17;;;31.45;38.91
34921;BME280;21128;50.016;20.002;2022-08-04T10:46:49;99094.34;;;31.21;37.03
34921;BME280;21128;50.016;20.002;2022-08-04T10:49:39;99103.78;;;30.93;37.80
34921;BME280;21128;50.016;20.002;2022-08-04T10:55:09;99102.44;;;31.00;38.29
34921;BME280;21128;50.016;20.002;2022-08-04T11:00:10;99093.16;;;30.76;36.86
34921;BME280;21128;50.016;20.002;2022-08-04T11:03:03;99099.70;;;30.80;36.90
34921;BME280;21128;50.016;20.002;2022-08-04T11:05:51;99100.78;;;30.79;37.03
34921;BME280;21128;50.016;20.002;2022-08-04T11:08:28;99091.55;;;30.85;37.57
34921;BME280;21128;50.016;20.002;2022-08-04T11:13:48;99089.99;;;31.20;37.45
34921;BME280;21128;50.016;20.002;2022-08-04T11:16:25;99088.38;;;31.34;37.28
34921;BME280;21128;50.016;20.002;2022-08-04T11:22:24;99085.13;;;31.42;37.20
34921;BME280;21128;50.016;20.002;2022-08-04T11:30:09;99094.34;;;31.87;36.87
34921;BME280;21128;50.016;20.002;2022-08-04T11:32:56;99099.72;;;32.02;37.15
34921;BME280;21128;50.016;20.002;2022-08-04T11:35:34;99093.41;;;32.32;37.12
34921;BME280;21128;50.016;20.002;2022-08-04T11:38:11;99087.42;;;32.25;35.93
34921;BME280;21128;50.016;20.002;2022-08-04T11:40:42;99093.72;;;32.10;36.23
34921;BME280;21128;50.016;20.002;2022-08-04T11:43:32;99094.20;;;32.28;36.55
34921;BME280;21128;50.016;20.002;2022-08-04T11:46:07;99091.73;;;32.41;36.29
34921;BME280;21128;50.016;20.002;2022-08-04T11:48:36;99094.33;;;32.67;36.87
34921;BME280;21128;50.016;20.002;2022-08-04T11:51:07;99083.36;;;32.82;35.90
34921;BME280;21128;50.016;20.002;2022-08-04T11:53:37;99086.33;;;32.91;36.02
34921;BME280;21128;50.016;20.002;2022-08-04T11:56:07;99096.17;;;32.76;34.49
34921;BME280;21128;50.016;20.002;2022-08-04T11:58:36;99088.65;;;32.63;35.01
34921;BME280;21128;50.016;20.002;2022-08-04T12:09:44;99079.55;;;32.88;34.04
34921;BME280;21128;50.016;20.002;2022-08-04T12:12:40;99075.16;;;32.92;34.56
34921;BME280;21128;50.016;20.002;2022-08-04T12:18:00;99061.76;;;33.01;34.63
34921;BME280;21128;50.016;20.002;2022-08-04T12:20:35;99053.50;;;33.11;34.31
34921;BME280;21128;50.016;20.002;2022-08-04T12:23:31;99053.16;;;33.23;34.36
34921;BME280;21128;50.016;20.002;2022-08-04T12:26:04;99064.18;;;33.42;34.71
34921;BME280;21128;50.016;20.002;2022-08-04T12:28:39;99066.70;;;33.62;34.53
34921;BME280;21128;50.016;20.002;2022-08-04T12:31:19;99059.62;;;33.61;34.00
34921;BME280;21128;50.016;20.002;2022-08-04T12:34:09;99058.70;;;33.47;33.76
34921;BME280;21128;50.016;20.002;2022-08-04T12:36:39;99060.39;;;33.38;33.27
34921;BME280;21128;50.016;20.002;2022-08-04T12:39:15;99060.97;;;32.95;32.56
34921;BME280;21128;50.016;20.002;2022-08-04T12:42:21;99053.72;;;32.81;33.37
34921;BME280;21128;50.016;20.002;2022-08-04T12:44:50;99057.44;;;32.95;33.78
34921;BME280;21128;50.016;20.002;2022-08-04T12:47:26;99046.41;;;33.15;33.64
34921;BME280;21128;50.016;20.002;2022-08-04T12:50:01;99048.36;;;33.44;33.41
34921;BME280;21128;50.016;20.002;2022-08-04T12:52:40;99042.66;;;33.69;33.17
34921;BME280;21128;50.016;20.002;2022-08-04T12:55:08;99042.48;;;33.84;33.17
34921;BME280;21128;50.016;20.002;2022-08-04T12:57:43;99043.46;;;33.70;32.71
34921;BME280;21128;50.016;20.002;2022-08-04T13:00:22;99044.38;;;33.60;33.28
34921;BME280;21128;50.016;20.002;2022-08-04T13:02:50;99045.22;;;33.26;32.30
34921;BME280;21128;50.016;20.002;2022-08-04T13:05:20;99033.95;;;33.04;33.02
34921;BME280;21128;50.016;20.002;2022-08-04T13:07:56;99035.66;;;33.29;32.97
34921;BME280;21128;50.016;20.002;2022-08-04T13:10:24;99037.05;;;33.26;32.93
34921;BME280;21128;50.016;20.002;2022-08-04T13:12:59;99033.89;;;33.48;33.44
34921;BME280;21128;50.016;20.002;2022-08-04T13:15:27;99024.52;;;33.83;32.69
34921;BME280;21128;50.016;20.002;2022-08-04T13:17:58;99017.61;;;33.67;31.90
34921;BME280;21128;50.016;20.002;2022-08-04T13:20:30;99017.66;;;33.33;31.81
34921;BME280;21128;50.016;20.002;2022-08-04T13:23:19;99021.45;;;33.03;31.64
34921;BME280;21128;50.016;20.002;2022-08-04T13:25:54;99020.25;;;32.80;32.32
34921;BME280;21128;50.016;20.002;2022-08-04T13:28:24;99023.47;;;32.87;32.72
34921;BME280;21128;50.016;20.002;2022-08-04T13:30:58;99019.83;;;33.02;32.68
34921;BME280;21128;50.016;20.002;2022-08-04T13:33:33;99017.16;;;32.97;33.15
34921;BME280;21128;50.016;20.002;2022-08-04T13:36:01;99022.84;;;33.00;32.99
34921;BME280;21128;50.016;20.002;2022-08-04T13:38:29;99020.77;;;33.21;33.20
34921;BME280;21128;50.016;20.002;2022-08-04T13:41:02;99019.57;;;33.32;32.56
34921;BME280;21128;50.016;20.002;2022-08-04T13:43:38;99021.77;;;33.30;32.38
34921;BME280;21128;50.016;20.002;2022-08-04T13:46:06;99014.53;;;33.50;32.47
34921;BME280;21128;50.016;20.002;2022-08-04T13:48:39;99019.17;;;33.49;32.27
34921;BME280;21128;50.016;20.002;2022-08-04T13:51:09;99019.34;;;33.58;32.29
34921;BME280;21128;50.016;20.002;2022-08-04T13:53:43;99009.44;;;33.67;31.14
34921;BME280;21128;50.016;20.002;2022-08-04T13:56:13;99011.73;;;33.26;31.57
34921;BME280;21128;50.016;20.002;2022-08-04T13:58:43;99012.60;;;33.21;31.95
34921;BME280;21128;50.016;20.002;2022-08-04T14:01:18;98999.34;;;33.10;31.86
34921;BME280;21128;50.016;20.002;2022-08-04T14:06:50;99006.75;;;32.65;32.11
34921;BME280;21128;50.016;20.002;2022-08-04T14:09:25;99009.31;;;32.90;32.50
34921;BME280;21128;50.016;20.002;2022-08-04T14:11:55;98999.87;;;33.12;32.41
34921;BME280;21128;50.016;20.002;2022-08-04T14:14:50;99000.16;;;33.10;31.04
34921;BME280;21128;50.016;20.002;2022-08-04T14:17:25;98996.55;;;32.86;31.59
34921;BME280;21128;50.016;20.002;2022-08-04T14:20:00;98997.13;;;32.77;32.10
34921;BME280;21128;50.016;20.002;2022-08-04T14:22:28;98988.20;;;32.72;32.03
34921;BME280;21128;50.016;20.002;2022-08-04T14:25:14;98989.06;;;32.62;31.96
34921;BME280;21128;50.016;20.002;2022-08-04T14:27:47;98988.83;;;32.59;32.51
34921;BME280;21128;50.016;20.002;2022-08-04T14:30:31;98994.50;;;32.62;31.98
34921;BME280;21128;50.016;20.002;2022-08-04T14:33:11;98982.72;;;32.38;31.83
34921;BME280;21128;50.016;20.002;2022-08-04T14:35:38;98978.86;;;32.44;32.19
34921;BME280;21128;50.016;20.002;2022-08-04T14:38:09;98972.14;;;32.26;31.94
34921;BME280;21128;50.016;20.002;2022-08-04T14:40:41;98980.56;;;32.30;32.04
34921;BME280;21128;50.016;20.002;2022-08-04T14:43:09;98975.22;;;32.09;32.27
34921;BME280;21128;50.016;20.002;2022-08-04T14:45:41;98970.31;;;32.11;32.18
34921;BME280;21128;50.016;20.002;2022-08-04T14:48:09;98968.50;;;31.97;32.39
34921;BME280;21128;50.016;20.002;2022-08-04T14:50:43;98962.86;;;31.68;32.33
34921;BME280;21128;50.016;20.002;2022-08-04T14:53:16;98971.30;;;31.66;32.93
34921;BME280;21128;50.016;20.002;2022-08-04T14:55:59;98969.09;;;31.78;32.80
34921;BME280;21128;50.016;20.002;2022-08-04T14:58:28;98963.08;;;31.91;32.82
34921;BME280;21128;50.016;20.002;2022-08-04T15:00:57;98965.95;;;32.15;32.99
34921;BME280;21128;50.016;20.002;2022-08-04T15:03:27;98960.17;;;32.32;32.63
34921;BME280;21128;50.016;20.002;2022-08-04T15:05:56;98969.15;;;32.33;32.61
34921;BME280;21128;50.016;20.002;2022-08-04T15:08:24;98970.98;;;32.42;33.11
34921;BME280;21128;50.016;20.002;2022-08-04T15:10:58;98968.45;;;32.56;32.64
34921;BME280;21128;50.016;20.002;2022-08-04T15:13:30;98972.28;;;32.55;32.58
34921;BME280;21128;50.016;20.002;2022-08-04T15:16:05;98961.86;;;32.62;31.85
34921;BME280;21128;50.016;20.002;2022-08-04T15:18:32;98974.28;;;32.39;31.36
34921;BME280;21128;50.016;20.002;2022-08-04T15:21:01;98976.73;;;32.36;31.67
34921;BME280;21128;50.016;20.002;2022-08-04T15:23:48;98964.80;;;32.27;31.70
34921;BME280;21128;50.016;20.002;2022-08-04T15:26:26;98964.05;;;32.16;31.99
34921;BME280;21128;50.016;20.002;2022-08-04T15:28:57;98964.00;;;32.31;32.32
34921;BME280;21128;50.016;20.002;2022-08-04T15:31:26;98963.95;;;32.36;31.67
34921;BME280;21128;50.016;20.002;2022-08-04T15:33:54;98962.34;;;32.30;31.84
34921;BME280;21128;50.016;20.002;2022-08-04T15:36:42;98958.91;;;32.09;31.89
34921;BME280;21128;50.016;20.002;2022-08-04T15:39:22;98958.95;;;32.04;32.38
34921;BME280;21128;50.016;20.002;2022-08-04T15:42:14;98957.59;;;32.02;32.15
34921;BME280;21128;50.016;20.002;2022-08-04T15:47:17;98963.19;;;32.31;32.28
34921;BME280;21128;50.016;20.002;2022-08-04T15:49:44;98951.33;;;32.06;31.92
34921;BME280;21128;50.016;20.002;2022-08-04T15:52:17;98956.83;;;31.91;32.20
34921;BME280;21128;50.016;20.002;2022-08-04T15:54:45;98955.72;;;31.97;32.51
34921;BME280;21128;50.016;20.002;2022-08-04T15:57:11;98960.53;;;32.10;32.10
34921;BME280;21128;50.016;20.002;2022-08-04T15:59:58;98952.60;;;32.19;32.02
34921;BME280;21128;50.016;20.002;2022-08-04T16:02:37;98955.42;;;32.04;32.09
34921;BME280;21128;50.016;20.002;2022-08-04T16:05:30;98957.64;;;31.91;32.17
34921;BME280;21128;50.016;20.002;2022-08-04T16:08:12;98957.18;;;31.64;32.50
34921;BME280;21128;50.016;20.002;2022-08-04T16:10:41;98950.98;;;31.43;32.33
34921;BME280;21128;50.016;20.002;2022-08-04T16:13:20;98959.95;;;31.18;32.64
34921;BME280;21128;50.016;20.002;2022-08-04T16:15:56;98959.70;;;31.15;32.94
34921;BME280;21128;50.016;20.002;2022-08-04T16:20:58;98946.15;;;30.99;33.19
34921;BME280;21128;50.016;20.002;2022-08-04T16:26:43;98947.48;;;30.61;34.10
34921;BME280;21128;50.016;20.002;2022-08-04T16:29:30;98946.70;;;30.66;34.32
34921;BME280;21128;50.016;20.002;2022-08-04T16:37:14;98942.80;;;30.26;34.37
34921;BME280;21128;50.016;20.002;2022-08-04T16:39:42;98937.39;;;30.26;34.68
34921;BME280;21128;50.016;20.002;2022-08-04T16:42:31;98940.09;;;30.26;34.63
34921;BME280;21128;50.016;20.002;2022-08-04T16:45:10;98934.43;;;30.28;34.81
34921;BME280;21128;50.016;20.002;2022-08-04T16:50:14;98943.28;;;30.03;34.84
34921;BME280;21128;50.016;20.002;2022-08-04T16:52:46;98937.29;;;30.00;34.95
34921;BME280;21128;50.016;20.002;2022-08-04T16:55:27;98938.34;;;29.89;34.96
34921;BME280;21128;50.016;20.002;2022-08-04T16:57:56;98927.48;;;29.79;34.86
34921;BME280;21128;50.016;20.002;2022-08-04T17:02:57;98938.08;;;29.38;35.43
34921;BME280;21128;50.016;20.002;2022-08-04T17:05:26;98935.00;;;29.20;35.88
34921;BME280;21128;50.016;20.002;2022-08-04T17:08:00;98938.69;;;29.08;35.95
34921;BME280;21128;50.016;20.002;2022-08-04T17:10:36;98944.02;;;28.93;36.74
34921;BME280;21128;50.016;20.002;2022-08-04T17:16:04;98943.90;;;28.51;37.25
34921;BME280;21128;50.016;20.002;2022-08-04T17:18:41;98946.38;;;28.30;38.08
34921;BME280;21128;50.016;20.002;2022-08-04T17:21:20;98941.82;;;28.09;38.36
34921;BME280;21128;50.016;20.002;2022-08-04T17:24:07;98946.71;;;27.90;38.99
34921;BME280;21128;50.016;20.002;2022-08-04T17:26:36;98944.41;;;27.77;39.49